createdAt,value
2022-11-08T00:00:50.500Z,99.99
2022-11-08T00:01:50.533Z,99.99
2022-11-08T00:02:50.519Z,99.99
2022-11-08T00:03:50.487Z,99.99
2022-11-08T00:04:50.455Z,99.99
2022-11-08T00:05:57.933Z,99.99
2022-11-08T00:06:50.422Z,99.99
2022-11-08T00:07:50.423Z,99.99
2022-11-08T00:08:50.403Z,99.99
2022-11-08T00:09:50.423Z,99.99
2022-11-08T00:10:50.385Z,99.99
2022-11-08T00:11:50.394Z,99.99
2022-11-08T00:12:50.353Z,99.99
2022-11-08T00:13:50.343Z,99.95
2022-11-08T00:14:50.333Z,99.33
2022-11-08T00:15:50.353Z,99.23
2022-11-08T00:16:50.312Z,99.74
2022-11-08T00:17:50.304Z,99.84
2022-11-08T00:18:50.292Z,99.33
2022-11-08T00:19:50.284Z,99.68
2022-11-08T00:20:50.265Z,99.99
2022-11-08T00:21:50.276Z,99.99
2022-11-08T00:22:50.241Z,99.99
2022-11-08T00:23:50.234Z,99.99
2022-11-08T00:24:50.223Z,99.99
2022-11-08T00:25:50.215Z,99.99
2022-11-08T00:26:50.226Z,99.99
2022-11-08T00:27:50.191Z,99.99
2022-11-08T00:28:50.175Z,99.99
2022-11-08T00:29:50.170Z,99.99
2022-11-08T00:30:50.155Z,99.99
2022-11-08T00:31:50.145Z,99.99
2022-11-08T00:32:50.172Z,99.99
2022-11-08T00:33:50.126Z,99.99
2022-11-08T00:34:50.119Z,99.99
2022-11-08T00:35:50.104Z,99.99
2022-11-08T00:36:50.094Z,99.99
2022-11-08T00:37:50.082Z,99.99
2022-11-08T00:38:50.101Z,99.99
2022-11-08T00:39:50.052Z,99.99
2022-11-08T00:40:50.045Z,99.99
2022-11-08T00:41:50.036Z,99.99
2022-11-08T00:42:50.025Z,99.99
2022-11-08T00:43:50.014Z,99.99
2022-11-08T00:44:50.012Z,99.99
2022-11-08T00:45:49.983Z,99.99
2022-11-08T00:46:49.973Z,99.99
2022-11-08T00:47:49.965Z,99.99
2022-11-08T00:48:49.958Z,99.99
2022-11-08T00:49:49.964Z,99.99
2022-11-08T00:50:49.933Z,99.99
2022-11-08T00:51:49.922Z,99.95
2022-11-08T00:52:49.905Z,99.99
2022-11-08T00:53:49.903Z,99.99
2022-11-08T00:54:49.883Z,99.99
2022-11-08T00:55:49.905Z,99.99
2022-11-08T00:56:49.863Z,99.99
2022-11-08T00:57:59.106Z,99.99
2022-11-08T00:58:50.833Z,99.99
2022-11-08T00:59:49.834Z,99.99
2022-11-08T01:00:49.843Z,99.99
2022-11-08T01:01:49.930Z,99.99
2022-11-08T01:02:49.793Z,99.99
2022-11-08T01:03:49.785Z,99.99
2022-11-08T01:04:49.773Z,99.99
2022-11-08T01:05:49.765Z,99.99
2022-11-08T01:06:49.806Z,99.99
2022-11-08T01:07:49.743Z,99.99
2022-11-08T01:08:49.724Z,99.99
2022-11-08T01:09:49.722Z,99.99
2022-11-08T01:10:49.705Z,99.99
2022-11-08T01:11:49.700Z,99.99
2022-11-08T01:12:49.703Z,99.99
2022-11-08T01:13:49.673Z,99.99
2022-11-08T01:14:49.662Z,99.99
2022-11-08T01:15:49.725Z,99.99
2022-11-08T01:16:49.641Z,99.99
2022-11-08T01:17:49.623Z,99.99
2022-11-08T01:18:49.625Z,99.99
2022-11-08T01:19:49.604Z,99.99
2022-11-08T01:20:49.593Z,99.99
2022-11-08T01:21:49.583Z,99.99
2022-11-08T01:22:49.563Z,99.99
2022-11-08T01:23:49.617Z,99.99
2022-11-08T01:24:49.543Z,99.99
2022-11-08T01:25:49.533Z,99.48
2022-11-08T01:26:49.524Z,99.27
2022-11-08T01:27:49.516Z,98.86
2022-11-08T01:28:49.504Z,99.38
2022-11-08T01:29:49.513Z,99.07
2022-11-08T01:30:49.483Z,99.11
2022-11-08T01:31:49.473Z,99.32
2022-11-08T01:32:49.454Z,98.91
2022-11-08T01:33:51.530Z,98.61
2022-11-08T01:34:49.434Z,98.20
2022-11-08T01:35:49.446Z,98.20
2022-11-08T01:36:49.415Z,99.22
2022-11-08T01:37:49.402Z,98.91
2022-11-08T01:38:49.394Z,98.81
2022-11-08T01:39:49.382Z,99.16
2022-11-08T01:40:49.363Z,99.37
2022-11-08T01:41:49.391Z,99.68
2022-11-08T01:42:49.343Z,99.88
2022-11-08T01:43:49.333Z,99.68
2022-11-08T01:44:49.325Z,99.88
2022-11-08T01:45:49.313Z,99.37
2022-11-08T01:46:49.302Z,98.86
2022-11-08T01:47:49.323Z,98.65
2022-11-08T01:48:49.283Z,99.68
2022-11-08T01:49:49.273Z,99.78
2022-11-08T01:50:49.253Z,99.82
2022-11-08T01:51:49.251Z,99.31
2022-11-08T01:52:49.235Z,99.31
2022-11-08T01:53:49.246Z,98.60
2022-11-08T01:54:49.212Z,98.70
2022-11-08T01:55:49.203Z,98.60
2022-11-08T01:56:49.194Z,98.03
2022-11-08T01:57:49.182Z,98.13
2022-11-08T01:58:49.172Z,98.03
2022-11-08T01:59:49.172Z,98.07
2022-11-08T02:00:49.191Z,97.87
2022-11-08T02:01:49.258Z,98.38
2022-11-08T02:02:49.122Z,98.79
2022-11-08T02:03:49.121Z,98.83
2022-11-08T02:04:49.123Z,99.04
2022-11-08T02:05:49.093Z,99.04
2022-11-08T02:06:49.082Z,99.76
2022-11-08T02:07:49.072Z,99.99
2022-11-08T02:08:49.053Z,99.41
2022-11-08T02:09:49.052Z,99.61
2022-11-08T02:10:49.054Z,99.99
2022-11-08T02:11:49.023Z,99.99
2022-11-08T02:12:49.012Z,99.99
2022-11-08T02:13:49.003Z,99.99
2022-11-08T02:14:48.994Z,99.99
2022-11-08T02:15:48.991Z,99.99
2022-11-08T02:16:48.985Z,99.99
2022-11-08T02:17:48.961Z,99.99
2022-11-08T02:18:48.943Z,99.99
2022-11-08T02:19:48.942Z,99.99
2022-11-08T02:20:48.922Z,99.99
2022-11-08T02:21:48.942Z,99.99
2022-11-08T02:22:48.912Z,99.99
2022-11-08T02:23:48.891Z,99.99
2022-11-08T02:24:48.879Z,99.99
2022-11-08T02:25:48.872Z,99.99
2022-11-08T02:26:48.861Z,99.71
2022-11-08T02:27:48.894Z,99.35
2022-11-08T02:28:48.834Z,99.96
2022-11-08T02:29:48.822Z,99.99
2022-11-08T02:30:48.811Z,99.96
2022-11-08T02:31:48.802Z,99.55
2022-11-08T02:32:48.791Z,99.45
2022-11-08T02:33:48.802Z,99.15
2022-11-08T02:34:48.771Z,99.80
2022-11-08T02:35:48.765Z,99.99
2022-11-08T02:36:48.751Z,99.70
2022-11-08T02:37:48.743Z,99.70
2022-11-08T02:38:48.751Z,99.40
2022-11-08T02:39:48.712Z,99.50
2022-11-08T02:40:48.701Z,99.99
2022-11-08T02:41:48.702Z,99.91
2022-11-08T02:42:48.681Z,99.70
2022-11-08T02:43:48.673Z,99.80
2022-11-08T02:44:48.692Z,99.50
2022-11-08T02:45:48.672Z,99.60
2022-11-08T02:46:48.631Z,99.44
2022-11-08T02:47:48.631Z,99.13
2022-11-08T02:48:48.611Z,99.34
2022-11-08T02:49:48.601Z,99.13
2022-11-08T02:50:48.605Z,99.44
2022-11-08T02:51:48.582Z,99.79
2022-11-08T02:52:48.569Z,99.69
2022-11-08T02:53:48.565Z,99.99
2022-11-08T02:54:48.549Z,99.79
2022-11-08T02:55:48.550Z,99.99
2022-11-08T02:56:48.539Z,99.99
2022-11-08T02:57:48.511Z,99.90
2022-11-08T02:58:48.500Z,99.79
2022-11-08T02:59:48.489Z,99.69
2022-11-08T03:00:48.481Z,99.69
2022-11-08T03:01:48.551Z,99.59
2022-11-08T03:02:48.501Z,99.59
2022-11-08T03:03:48.443Z,99.38
2022-11-08T03:04:48.433Z,99.43
2022-11-08T03:05:48.420Z,99.95
2022-11-08T03:06:48.429Z,99.90
2022-11-08T03:07:48.401Z,99.99
2022-11-08T03:08:48.380Z,99.99
2022-11-08T03:09:48.379Z,99.99
2022-11-08T03:10:48.362Z,99.99
2022-11-08T03:11:48.357Z,99.99
2022-11-08T03:12:48.373Z,99.99
2022-11-08T03:13:48.330Z,99.99
2022-11-08T03:14:48.319Z,99.99
2022-11-08T03:15:48.313Z,99.99
2022-11-08T03:16:48.300Z,99.99
2022-11-08T03:17:48.289Z,99.99
2022-11-08T03:18:48.299Z,99.99
2022-11-08T03:19:48.260Z,99.99
2022-11-08T03:20:48.250Z,99.99
2022-11-08T03:21:48.238Z,99.99
2022-11-08T03:22:48.230Z,99.99
2022-11-08T03:23:48.218Z,99.99
2022-11-08T03:24:48.232Z,99.99
2022-11-08T03:25:48.189Z,99.90
2022-11-08T03:26:48.180Z,99.99
2022-11-08T03:27:48.170Z,99.84
2022-11-08T03:28:48.161Z,99.99
2022-11-08T03:29:48.149Z,99.74
2022-11-08T03:30:48.160Z,99.54
2022-11-08T03:31:48.128Z,99.43
2022-11-08T03:32:48.118Z,99.43
2022-11-08T03:33:48.108Z,99.17
2022-11-08T03:34:48.091Z,98.66
2022-11-08T03:35:48.119Z,98.55
2022-11-08T03:36:48.069Z,98.96
2022-11-08T03:37:48.058Z,99.07
2022-11-08T03:38:48.049Z,99.58
2022-11-08T03:39:48.039Z,99.99
2022-11-08T03:40:48.019Z,99.99
2022-11-08T03:41:48.040Z,99.99
2022-11-08T03:42:48.001Z,99.99
2022-11-08T03:43:47.989Z,99.99
2022-11-08T03:44:47.979Z,99.99
2022-11-08T03:45:47.968Z,99.99
2022-11-08T03:46:47.956Z,99.99
2022-11-08T03:47:47.960Z,99.99
2022-11-08T03:48:47.929Z,99.99
2022-11-08T03:49:47.917Z,99.99
2022-11-08T03:50:47.910Z,99.99
2022-11-08T03:51:47.897Z,99.99
2022-11-08T03:52:47.889Z,99.99
2022-11-08T03:53:47.887Z,99.99
2022-11-08T03:54:47.858Z,99.99
2022-11-08T03:55:47.857Z,99.99
2022-11-08T03:56:47.839Z,99.99
2022-11-08T03:57:47.827Z,99.99
2022-11-08T03:58:47.837Z,99.99
2022-11-08T03:59:47.806Z,99.99
2022-11-08T04:00:47.808Z,99.99
2022-11-08T04:01:47.916Z,99.99
2022-11-08T04:02:47.790Z,99.99
2022-11-08T04:03:47.758Z,99.99
2022-11-08T04:04:47.769Z,99.99
2022-11-08T04:05:47.740Z,99.99
2022-11-08T04:06:47.719Z,99.99
2022-11-08T04:07:47.707Z,99.99
2022-11-08T04:08:47.737Z,99.99
2022-11-08T04:09:47.688Z,99.99
2022-11-08T04:10:47.707Z,99.99
2022-11-08T04:11:47.657Z,99.99
2022-11-08T04:12:47.662Z,99.99
2022-11-08T04:13:47.637Z,99.99
2022-11-08T04:14:47.627Z,99.99
2022-11-08T04:15:47.628Z,99.99
2022-11-08T04:16:47.648Z,99.99
2022-11-08T04:17:47.588Z,99.99
2022-11-08T04:18:47.587Z,99.99
2022-11-08T04:19:47.570Z,99.99
2022-11-08T04:20:47.565Z,99.99
2022-11-08T04:21:47.578Z,99.99
2022-11-08T04:22:47.537Z,99.99
2022-11-08T04:23:47.530Z,99.99
2022-11-08T04:24:47.523Z,99.99
2022-11-08T04:25:47.508Z,99.99
2022-11-08T04:26:47.499Z,99.99
2022-11-08T04:27:47.499Z,99.99
2022-11-08T04:28:47.475Z,99.99
2022-11-08T04:29:47.456Z,99.99
2022-11-08T04:30:47.451Z,99.99
2022-11-08T04:31:47.437Z,99.99
2022-11-08T04:32:47.428Z,99.99
2022-11-08T04:33:47.441Z,99.99
2022-11-08T04:34:47.409Z,99.99
2022-11-08T04:35:47.416Z,99.99
2022-11-08T04:36:47.376Z,99.99
2022-11-08T04:37:47.367Z,99.99
2022-11-08T04:38:47.362Z,99.99
2022-11-08T04:39:47.366Z,99.99
2022-11-08T04:40:47.340Z,99.99
2022-11-08T04:41:47.317Z,99.99
2022-11-08T04:42:47.316Z,99.99
2022-11-08T04:43:47.297Z,99.99
2022-11-08T04:44:47.286Z,99.99
2022-11-08T04:45:47.297Z,99.99
2022-11-08T04:46:47.267Z,99.99
2022-11-08T04:47:48.404Z,99.99
2022-11-08T04:48:47.249Z,99.99
2022-11-08T04:49:47.234Z,99.99
2022-11-08T04:50:47.248Z,99.99
2022-11-08T04:51:47.208Z,99.99
2022-11-08T04:52:47.204Z,99.99
2022-11-08T04:53:47.188Z,99.99
2022-11-08T04:54:47.177Z,99.99
2022-11-08T04:55:47.174Z,99.99
2022-11-08T04:56:47.186Z,99.99
2022-11-08T04:57:47.144Z,99.99
2022-11-08T04:58:47.145Z,99.99
2022-11-08T04:59:47.136Z,99.99
2022-11-08T05:00:47.118Z,99.99
2022-11-08T05:01:47.184Z,99.99
2022-11-08T05:02:47.198Z,99.99
2022-11-08T05:03:47.076Z,99.99
2022-11-08T05:04:47.066Z,99.99
2022-11-08T05:05:47.069Z,99.99
2022-11-08T05:06:47.045Z,99.99
2022-11-08T05:07:47.036Z,99.99
2022-11-08T05:08:47.045Z,99.99
2022-11-08T05:09:47.014Z,99.99
2022-11-08T05:10:47.007Z,99.99
2022-11-08T05:11:46.986Z,99.99
2022-11-08T05:12:46.977Z,99.99
2022-11-08T05:13:46.967Z,99.99
2022-11-08T05:14:46.975Z,99.99
2022-11-08T05:15:46.954Z,99.99
2022-11-08T05:16:46.935Z,99.99
2022-11-08T05:17:46.924Z,99.99
2022-11-08T05:18:46.915Z,99.99
2022-11-08T05:19:46.948Z,99.99
2022-11-08T05:20:46.895Z,99.99
2022-11-08T05:21:46.877Z,99.99
2022-11-08T05:22:46.868Z,99.99
2022-11-08T05:23:46.856Z,99.99
2022-11-08T05:24:46.855Z,99.99
2022-11-08T05:25:46.874Z,99.99
2022-11-08T05:26:46.833Z,99.99
2022-11-08T05:27:46.816Z,99.99
2022-11-08T05:28:46.807Z,99.99
2022-11-08T05:29:46.796Z,99.99
2022-11-08T05:30:46.791Z,99.99
2022-11-08T05:31:46.785Z,99.99
2022-11-08T05:32:46.764Z,99.99
2022-11-08T05:33:46.747Z,99.99
2022-11-08T05:34:46.738Z,99.99
2022-11-08T05:35:46.726Z,99.99
2022-11-08T05:36:46.756Z,99.99
2022-11-08T05:37:46.719Z,99.99
2022-11-08T05:38:46.696Z,99.99
2022-11-08T05:39:46.677Z,99.99
2022-11-08T05:40:46.666Z,99.99
2022-11-08T05:41:46.656Z,99.99
2022-11-08T05:42:46.669Z,99.99
2022-11-08T05:43:46.636Z,99.99
2022-11-08T05:44:46.626Z,99.99
2022-11-08T05:45:46.615Z,99.99
2022-11-08T05:46:46.605Z,99.99
2022-11-08T05:47:46.625Z,99.99
2022-11-08T05:48:46.584Z,99.99
2022-11-08T05:49:46.569Z,99.99
2022-11-08T05:50:46.556Z,99.99
2022-11-08T05:51:46.551Z,99.99
2022-11-08T05:52:46.539Z,99.99
2022-11-08T05:53:46.545Z,99.99
2022-11-08T05:54:46.523Z,99.99
2022-11-08T05:55:46.505Z,99.99
2022-11-08T05:56:46.495Z,99.99
2022-11-08T05:57:46.475Z,99.99
2022-11-08T05:58:46.469Z,99.99
2022-11-08T05:59:46.474Z,99.99
2022-11-08T06:00:46.445Z,99.99
2022-11-08T06:01:46.504Z,99.99
2022-11-08T06:02:46.480Z,99.99
2022-11-08T06:03:46.406Z,99.99
2022-11-08T06:04:46.394Z,99.99
2022-11-08T06:05:46.414Z,99.99
2022-11-08T06:06:53.427Z,99.99
2022-11-08T06:07:46.365Z,99.99
2022-11-08T06:09:47.340Z,99.99
2022-11-08T06:10:46.338Z,99.99
2022-11-08T06:11:46.337Z,99.99
2022-11-08T06:12:46.307Z,99.99
2022-11-08T06:13:46.329Z,99.99
2022-11-08T06:14:46.287Z,99.99
2022-11-08T06:15:46.276Z,99.99
2022-11-08T06:16:46.268Z,99.99
2022-11-08T06:17:46.268Z,99.99
2022-11-08T06:18:46.248Z,99.99
2022-11-08T06:19:46.238Z,99.99
2022-11-08T06:20:46.227Z,99.99
2022-11-08T06:21:46.207Z,99.99
2022-11-08T06:22:46.217Z,99.99
2022-11-08T06:23:46.178Z,99.99
2022-11-08T06:24:46.179Z,99.99
2022-11-08T06:25:47.586Z,99.99
2022-11-08T06:26:46.146Z,99.99
2022-11-08T06:27:46.142Z,99.99
2022-11-08T06:28:46.175Z,99.99
2022-11-08T06:29:46.115Z,99.99
2022-11-08T06:30:46.108Z,99.99
2022-11-08T06:31:46.098Z,99.99
2022-11-08T06:32:46.080Z,99.99
2022-11-08T06:33:46.079Z,99.99
2022-11-08T06:34:46.089Z,99.99
2022-11-08T06:35:46.047Z,99.99
2022-11-08T06:36:46.038Z,99.99
2022-11-08T06:37:46.028Z,99.99
2022-11-08T06:38:46.017Z,99.99
2022-11-08T06:39:45.996Z,99.99
2022-11-08T06:40:46.015Z,99.99
2022-11-08T06:41:45.978Z,99.99
2022-11-08T06:42:45.966Z,99.99
2022-11-08T06:43:45.958Z,99.99
2022-11-08T06:44:45.946Z,99.99
2022-11-08T06:45:45.927Z,99.99
2022-11-08T06:46:45.947Z,99.99
2022-11-08T06:47:45.907Z,99.99
2022-11-08T06:48:45.897Z,99.99
2022-11-08T06:49:45.894Z,99.99
2022-11-08T06:50:45.876Z,99.99
2022-11-08T06:51:45.870Z,99.99
2022-11-08T06:52:45.878Z,99.99
2022-11-08T06:53:45.847Z,99.99
2022-11-08T06:54:45.834Z,99.99
2022-11-08T06:55:45.818Z,99.99
2022-11-08T06:56:45.813Z,99.99
2022-11-08T06:57:45.826Z,99.99
2022-11-08T06:58:45.808Z,99.99
2022-11-08T06:59:45.774Z,99.99
2022-11-08T07:00:45.766Z,99.99
2022-11-08T07:01:46.157Z,99.99
2022-11-08T07:02:45.962Z,99.99
2022-11-08T07:03:45.728Z,99.99
2022-11-08T07:04:45.734Z,99.99
2022-11-08T07:05:45.710Z,99.99
2022-11-08T07:06:45.695Z,99.99
2022-11-08T07:07:45.684Z,99.99
2022-11-08T07:08:45.682Z,99.99
2022-11-08T07:09:45.696Z,99.99
2022-11-08T07:10:45.655Z,99.99
2022-11-08T07:11:45.635Z,99.99
2022-11-08T07:12:45.633Z,99.99
2022-11-08T07:13:45.616Z,99.99
2022-11-08T07:14:45.638Z,99.99
2022-11-08T07:15:45.635Z,99.99
2022-11-08T07:16:45.609Z,99.99
2022-11-08T07:17:45.566Z,99.99
2022-11-08T07:18:45.620Z,99.99
2022-11-08T07:19:45.549Z,99.99
2022-11-08T07:20:45.546Z,99.99
2022-11-08T07:21:45.545Z,99.99
2022-11-08T07:22:45.516Z,99.99
2022-11-08T07:23:45.504Z,99.99
2022-11-08T07:24:45.498Z,99.99
2022-11-08T07:25:45.486Z,99.99
2022-11-08T07:26:45.475Z,99.99
2022-11-08T07:27:45.489Z,99.99
2022-11-08T07:28:45.457Z,99.99
2022-11-08T07:29:45.437Z,99.99
2022-11-08T07:30:45.434Z,99.99
2022-11-08T07:31:45.417Z,99.99
2022-11-08T07:32:45.413Z,99.99
2022-11-08T07:33:45.446Z,99.99
2022-11-08T07:34:45.385Z,99.52
2022-11-08T07:35:45.374Z,99.05
2022-11-08T07:36:45.357Z,99.77
2022-11-08T07:37:45.355Z,99.46
2022-11-08T07:38:45.336Z,99.15
2022-11-08T07:39:45.366Z,99.36
2022-11-08T07:40:45.315Z,99.51
2022-11-08T07:41:45.306Z,99.71
2022-11-08T07:43:10.093Z,99.99
2022-11-08T07:43:46.288Z,99.87
2022-11-08T07:44:45.273Z,99.36
2022-11-08T07:45:45.286Z,98.65
2022-11-08T07:46:45.253Z,98.74
2022-11-08T07:47:45.237Z,97.88
2022-11-08T07:48:45.233Z,97.88
2022-11-08T07:49:45.228Z,98.03
2022-11-08T07:50:45.207Z,98.58
2022-11-08T07:51:45.215Z,99.45
2022-11-08T07:52:45.183Z,99.96
2022-11-08T07:53:45.175Z,99.86
2022-11-08T07:54:45.155Z,99.99
2022-11-08T07:55:45.154Z,99.99
2022-11-08T07:56:45.136Z,99.15
2022-11-08T07:57:45.145Z,99.01
2022-11-08T07:58:45.126Z,97.74
2022-11-08T07:59:45.107Z,95.60
2022-11-08T08:00:45.089Z,94.89
2022-11-08T08:01:45.112Z,95.19
2022-11-08T08:02:45.152Z,94.68
2022-11-08T08:03:45.065Z,93.98
2022-11-08T08:04:45.047Z,92.36
2022-11-08T08:05:45.043Z,90.79
2022-11-08T08:06:45.025Z,89.73
2022-11-08T08:07:45.019Z,88.06
2022-11-08T08:08:45.016Z,85.06
2022-11-08T08:09:45.005Z,84.21
2022-11-08T08:10:44.975Z,85.66
2022-11-08T08:11:44.989Z,80.54
2022-11-08T08:12:44.956Z,80.17
2022-11-08T08:13:44.978Z,81.52
2022-11-08T08:14:44.935Z,79.65
2022-11-08T08:15:44.926Z,78.19
2022-11-08T08:16:44.926Z,76.84
2022-11-08T08:17:44.905Z,75.99
2022-11-08T08:18:44.886Z,74.95
2022-11-08T08:19:44.906Z,77.04
2022-11-08T08:20:44.879Z,75.89
2022-11-08T08:21:44.855Z,76.32
2022-11-08T08:22:44.855Z,77.06
2022-11-08T08:23:44.841Z,74.19
2022-11-08T08:24:44.830Z,73.75
2022-11-08T08:25:44.867Z,71.30
2022-11-08T08:26:44.797Z,70.15
2022-11-08T08:27:44.788Z,70.89
2022-11-08T08:28:44.775Z,71.37
2022-11-08T08:29:44.766Z,72.48
2022-11-08T08:30:44.788Z,73.49
2022-11-08T08:31:44.766Z,73.15
2022-11-08T08:32:44.980Z,72.01
2022-11-08T08:33:44.725Z,71.47
2022-11-08T08:34:44.709Z,73.56
2022-11-08T08:35:44.735Z,74.77
2022-11-08T08:36:44.687Z,74.74
2022-11-08T08:37:44.695Z,74.24
2022-11-08T08:38:44.924Z,74.74
2022-11-08T08:39:44.656Z,73.63
2022-11-08T08:40:44.637Z,74.51
2022-11-08T08:41:44.627Z,76.13
2022-11-08T08:42:44.657Z,75.15
2022-11-08T08:43:44.610Z,75.56
2022-11-08T08:44:44.597Z,77.01
2022-11-08T08:45:44.688Z,76.40
2022-11-08T08:46:44.569Z,74.10
2022-11-08T08:47:44.566Z,73.76
2022-11-08T08:48:44.569Z,72.72
2022-11-08T08:49:44.546Z,71.00
2022-11-08T08:50:44.528Z,71.67
2022-11-08T08:51:44.519Z,71.03
2022-11-08T08:52:44.509Z,72.17
2022-11-08T08:53:44.497Z,72.88
2022-11-08T08:54:44.508Z,72.65
2022-11-08T08:55:44.480Z,71.47
2022-11-08T08:56:44.469Z,71.47
2022-11-08T08:57:44.926Z,70.96
2022-11-08T08:58:45.267Z,72.85
2022-11-08T09:01:45.408Z,70.25
2022-11-08T09:02:44.389Z,70.52
2022-11-08T09:03:44.388Z,70.15
2022-11-08T09:04:44.370Z,70.66
2022-11-08T09:05:44.397Z,69.31
2022-11-08T09:06:44.415Z,69.21
2022-11-08T09:07:44.341Z,69.78
2022-11-08T09:08:44.329Z,69.98
2022-11-08T09:09:44.319Z,68.51
2022-11-08T09:10:44.308Z,67.86
2022-11-08T09:11:44.310Z,69.18
2022-11-08T09:12:44.282Z,68.54
2022-11-08T09:13:44.280Z,69.48
2022-11-08T09:14:44.259Z,67.90
2022-11-08T09:15:44.273Z,66.46
2022-11-08T09:16:44.260Z,65.95
2022-11-08T09:17:44.253Z,67.36
2022-11-08T09:18:44.291Z,67.49
2022-11-08T09:19:44.219Z,69.14
2022-11-08T09:20:44.202Z,69.78
2022-11-08T09:21:44.235Z,69.54
2022-11-08T09:22:44.191Z,71.40
2022-11-08T09:23:44.170Z,71.73
2022-11-08T09:24:44.153Z,73.09
2022-11-08T09:25:44.150Z,73.90
2022-11-08T09:26:44.131Z,73.80
2022-11-08T09:27:44.170Z,74.54
2022-11-08T09:28:44.101Z,73.53
2022-11-08T09:29:44.099Z,74.34
2022-11-08T09:30:44.082Z,74.54
2022-11-08T09:31:44.071Z,74.41
2022-11-08T09:33:00.372Z,73.39
2022-11-08T09:33:45.081Z,73.02
2022-11-08T09:34:44.043Z,73.97
2022-11-08T09:35:44.040Z,74.44
2022-11-08T09:36:44.013Z,74.38
2022-11-08T09:37:47.118Z,74.34
2022-11-08T09:38:45.001Z,74.54
2022-11-08T09:39:44.002Z,73.63
2022-11-08T09:40:43.971Z,73.97
2022-11-08T09:41:43.961Z,74.27
2022-11-08T09:42:43.955Z,74.48
2022-11-08T09:43:43.941Z,74.17
2022-11-08T09:44:44.013Z,74.27
2022-11-08T09:45:43.922Z,74.41
2022-11-08T09:46:43.904Z,74.51
2022-11-08T09:47:45.723Z,75.32
2022-11-08T09:48:43.881Z,74.71
2022-11-08T09:49:43.880Z,74.51
2022-11-08T09:50:43.883Z,74.62
2022-11-08T09:51:43.849Z,74.82
2022-11-08T09:52:43.844Z,75.16
2022-11-08T09:53:43.823Z,76.51
2022-11-08T09:54:43.812Z,76.01
2022-11-08T09:55:43.820Z,76.21
2022-11-08T09:56:43.803Z,75.80
2022-11-08T09:57:43.782Z,75.46
2022-11-08T09:58:43.770Z,75.09
2022-11-08T09:59:43.763Z,75.36
2022-11-08T10:00:43.742Z,74.99
2022-11-08T10:01:43.829Z,75.46
2022-11-08T10:02:43.722Z,75.60
2022-11-08T10:03:43.713Z,75.80
2022-11-08T10:04:43.702Z,75.46
2022-11-08T10:05:43.702Z,75.26
2022-11-08T10:06:43.691Z,74.88
2022-11-08T10:07:43.692Z,74.79
2022-11-08T10:08:43.653Z,75.09
2022-11-08T10:09:43.653Z,75.77
2022-11-08T10:10:43.633Z,76.86
2022-11-08T10:11:43.630Z,76.65
2022-11-08T10:12:43.814Z,75.70
2022-11-08T10:13:43.622Z,75.43
2022-11-08T10:14:52.361Z,75.84
2022-11-08T10:15:44.694Z,75.43
2022-11-08T10:16:43.567Z,75.40
2022-11-08T10:17:43.564Z,74.65
2022-11-08T10:18:43.544Z,74.28
2022-11-08T10:19:43.553Z,74.65
2022-11-08T10:20:43.523Z,73.94
2022-11-08T10:21:43.515Z,73.94
2022-11-08T10:22:43.494Z,73.50
2022-11-08T10:23:43.498Z,72.78
2022-11-08T10:24:43.494Z,72.99
2022-11-08T10:25:43.481Z,73.06
2022-11-08T10:26:43.453Z,72.85
2022-11-08T10:27:43.456Z,72.41
2022-11-08T10:28:43.432Z,72.11
2022-11-08T10:29:43.423Z,72.14
2022-11-08T10:30:43.434Z,72.11
2022-11-08T10:31:43.403Z,72.25
2022-11-08T10:32:43.394Z,72.21
2022-11-08T10:33:43.373Z,72.41
2022-11-08T10:34:43.364Z,72.11
2022-11-08T10:35:43.364Z,72.01
2022-11-08T10:36:43.363Z,72.61
2022-11-08T10:37:43.334Z,72.92
2022-11-08T10:38:43.314Z,72.65
2022-11-08T10:39:43.314Z,73.16
2022-11-08T10:40:43.295Z,73.57
2022-11-08T10:41:43.294Z,73.43
2022-11-08T10:42:43.294Z,72.75
2022-11-08T10:43:43.265Z,73.60
2022-11-08T10:44:43.252Z,74.17
2022-11-08T10:45:43.262Z,74.51
2022-11-08T10:46:43.233Z,74.51
2022-11-08T10:47:43.224Z,74.62
2022-11-08T10:48:43.224Z,74.88
2022-11-08T10:49:43.205Z,74.92
2022-11-08T10:50:43.184Z,75.63
2022-11-08T10:51:43.175Z,76.24
2022-11-08T10:52:43.168Z,76.24
2022-11-08T10:53:43.204Z,75.73
2022-11-08T10:54:43.144Z,75.29
2022-11-08T10:55:43.155Z,75.39
2022-11-08T10:56:43.114Z,74.88
2022-11-08T10:57:43.116Z,74.98
2022-11-08T10:58:43.097Z,74.14
2022-11-08T10:59:43.111Z,73.70
2022-11-08T11:00:43.074Z,73.63
2022-11-08T11:01:45.828Z,73.73
2022-11-08T11:02:43.058Z,73.73
2022-11-08T11:03:43.046Z,74.24
2022-11-08T11:04:43.045Z,73.73
2022-11-08T11:05:43.025Z,73.33
2022-11-08T11:06:43.049Z,73.33
2022-11-08T11:07:42.996Z,72.48
2022-11-08T11:08:42.985Z,72.08
2022-11-08T11:09:42.975Z,71.77
2022-11-08T11:10:42.985Z,72.31
2022-11-08T11:11:42.956Z,72.52
2022-11-08T11:12:42.936Z,72.11
2022-11-08T11:13:42.942Z,72.55
2022-11-08T11:14:42.916Z,72.85
2022-11-08T11:15:42.916Z,72.55
2022-11-08T11:16:42.915Z,73.02
2022-11-08T11:17:42.936Z,72.38
2022-11-08T11:18:42.876Z,72.38
2022-11-08T11:19:42.867Z,72.52
2022-11-08T11:20:42.846Z,72.28
2022-11-08T11:21:42.860Z,72.17
2022-11-08T11:22:42.827Z,72.08
2022-11-08T11:23:42.826Z,72.08
2022-11-08T11:24:42.806Z,71.88
2022-11-08T11:25:42.807Z,72.21
2022-11-08T11:26:42.786Z,72.08
2022-11-08T11:27:42.786Z,72.08
2022-11-08T11:28:42.757Z,72.14
2022-11-08T11:29:42.768Z,71.13
2022-11-08T11:30:42.737Z,71.77
2022-11-08T11:31:42.727Z,71.88
2022-11-08T11:32:42.734Z,72.11
2022-11-08T11:33:42.707Z,72.41
2022-11-08T11:34:42.694Z,72.72
2022-11-08T11:35:42.696Z,72.61
2022-11-08T11:36:42.668Z,72.68
2022-11-08T11:37:42.661Z,71.91
2022-11-08T11:38:42.666Z,71.13
2022-11-08T11:39:42.636Z,71.09
2022-11-08T11:40:42.625Z,71.00
2022-11-08T11:41:42.656Z,70.69
2022-11-08T11:42:46.744Z,69.88
2022-11-08T11:43:42.601Z,70.29
2022-11-08T11:44:42.596Z,70.79
2022-11-08T11:45:42.656Z,70.56
2022-11-08T11:46:42.568Z,70.25
2022-11-08T11:47:42.548Z,69.98
2022-11-08T11:48:42.537Z,70.39
2022-11-08T11:49:42.548Z,70.49
2022-11-08T11:50:42.518Z,70.25
2022-11-08T11:51:42.561Z,69.68
2022-11-08T11:52:42.497Z,70.05
2022-11-08T11:53:47.377Z,69.68
2022-11-08T11:54:43.518Z,69.85
2022-11-08T11:55:42.467Z,69.41
2022-11-08T11:56:42.451Z,68.70
2022-11-08T11:57:42.429Z,68.57
2022-11-08T11:58:42.427Z,67.69
2022-11-08T11:59:42.407Z,67.93
2022-11-08T12:00:42.426Z,68.40
2022-11-08T12:01:42.486Z,68.70
2022-11-08T12:02:42.403Z,68.70
2022-11-08T12:03:42.367Z,68.53
2022-11-08T12:04:42.359Z,68.60
2022-11-08T12:05:42.368Z,68.43
2022-11-08T12:06:42.487Z,68.63
2022-11-08T12:07:49.369Z,68.13
2022-11-08T12:08:42.310Z,68.43
2022-11-08T12:09:42.298Z,68.23
2022-11-08T12:10:42.305Z,67.93
2022-11-08T12:11:42.302Z,68.46
2022-11-08T12:12:42.270Z,68.87
2022-11-08T12:13:42.255Z,68.77
2022-11-08T12:14:42.256Z,69.04
2022-11-08T12:15:42.251Z,68.56
2022-11-08T12:16:42.220Z,69.17
2022-11-08T12:17:42.230Z,69.17
2022-11-08T12:18:44.011Z,69.07
2022-11-08T12:19:42.182Z,68.87
2022-11-08T12:20:42.182Z,68.87
2022-11-08T12:21:42.162Z,69.14
2022-11-08T12:22:42.150Z,68.53
2022-11-08T12:23:42.168Z,68.53
2022-11-08T12:24:42.130Z,68.19
2022-11-08T12:25:42.132Z,67.79
2022-11-08T12:26:42.110Z,67.99
2022-11-08T12:27:42.097Z,68.30
2022-11-08T12:28:42.463Z,67.79
2022-11-08T12:29:42.089Z,67.66
2022-11-08T12:30:42.061Z,67.15
2022-11-08T12:31:42.054Z,67.39
2022-11-08T12:32:42.041Z,67.18
2022-11-08T12:33:42.022Z,67.59
2022-11-08T12:34:42.042Z,67.59
2022-11-08T12:35:42.025Z,68.10
2022-11-08T12:36:41.994Z,68.23
2022-11-08T12:37:41.983Z,68.19
2022-11-08T12:38:41.972Z,68.10
2022-11-08T12:39:41.963Z,68.10
2022-11-08T12:40:41.980Z,68.10
2022-11-08T12:41:41.932Z,68.40
2022-11-08T12:42:41.933Z,68.30
2022-11-08T12:43:41.911Z,68.23
2022-11-08T12:44:41.902Z,68.43
2022-11-08T12:45:41.903Z,68.84
2022-11-08T12:46:41.904Z,68.90
2022-11-08T12:47:41.875Z,67.59
2022-11-08T12:48:41.863Z,67.69
2022-11-08T12:49:41.845Z,67.76
2022-11-08T12:50:41.841Z,68.06
2022-11-08T12:51:41.825Z,67.66
2022-11-08T12:52:41.832Z,67.39
2022-11-08T12:53:41.806Z,68.06
2022-11-08T12:54:41.793Z,67.66
2022-11-08T12:55:41.794Z,67.46